createdAt,value
2022-08-04T00:01:08.793Z,1.75
2022-08-04T00:03:58.578Z,1.90
2022-08-04T00:07:05.057Z,2.22
2022-08-04T00:10:04.809Z,1.88
2022-08-04T00:12:39.689Z,2.10
2022-08-04T00:15:10.890Z,2.13
2022-08-04T00:20:20.461Z,2.33
2022-08-04T00:22:49.344Z,1.87
2022-08-04T00:25:16.911Z,2.08
2022-08-04T00:27:44.161Z,2.00
2022-08-04T00:30:11.688Z,3.03
2022-08-04T00:32:41.774Z,2.13
2022-08-04T00:35:15.143Z,3.08
2022-08-04T00:37:47.399Z,2.55
2022-08-04T00:40:40.782Z,2.63
2022-08-04T00:43:33.346Z,2.05
2022-08-04T00:46:41.045Z,2.25
2022-08-04T00:49:20.817Z,1.70
2022-08-04T00:52:33.377Z,2.03
2022-08-04T00:55:14.817Z,2.30
2022-08-04T00:58:16.554Z,2.45
2022-08-04T01:01:05.924Z,1.98
2022-08-04T01:04:03.412Z,2.38
2022-08-04T01:07:03.619Z,2.00
2022-08-04T01:09:59.475Z,1.92
2022-08-04T01:13:12.810Z,2.17
2022-08-04T01:16:03.927Z,1.73
2022-08-04T01:18:59.443Z,2.10
2022-08-04T01:22:02.380Z,2.20
2022-08-04T01:24:56.938Z,2.65
2022-08-04T01:28:10.578Z,2.33
2022-08-04T01:30:42.878Z,1.90
2022-08-04T01:33:15.204Z,2.22
2022-08-04T01:35:51.843Z,2.30
2022-08-04T01:38:30.711Z,2.13
2022-08-04T01:41:04.018Z,2.38
2022-08-04T01:43:34.805Z,2.92
2022-08-04T01:46:05.172Z,2.63
2022-08-04T01:48:32.922Z,2.53
2022-08-04T01:51:07.566Z,1.83
2022-08-04T01:53:38.105Z,2.72
2022-08-04T01:56:08.798Z,2.40
2022-08-04T01:58:37.981Z,1.75
2022-08-04T02:01:11.678Z,2.85
2022-08-04T02:04:20.674Z,2.17
2022-08-04T02:06:51.430Z,2.65
2022-08-04T02:09:53.959Z,2.10
2022-08-04T02:12:56.254Z,2.90
2022-08-04T02:16:14.395Z,2.53
2022-08-04T02:19:27.829Z,2.78
2022-08-04T02:22:10.570Z,2.63
2022-08-04T02:24:51.129Z,2.63
2022-08-04T02:27:59.704Z,2.42
2022-08-04T02:30:19.447Z,3.05
2022-08-04T02:32:49.334Z,2.60
2022-08-04T02:35:30.358Z,2.50
2022-08-04T02:38:38.644Z,2.67
2022-08-04T02:41:07.957Z,2.95
2022-08-04T02:43:50.894Z,3.08
2022-08-04T02:46:21.595Z,2.95
2022-08-04T02:48:51.950Z,2.53
2022-08-04T02:51:29.708Z,2.45
2022-08-04T02:53:59.489Z,2.42
2022-08-04T02:56:30.814Z,2.40
2022-08-04T02:59:05.092Z,2.83
2022-08-04T03:01:34.077Z,2.63
2022-08-04T03:04:26.230Z,3.17
2022-08-04T03:07:24.104Z,2.65
2022-08-04T03:10:22.841Z,2.55
2022-08-04T03:13:24.671Z,3.05
2022-08-04T03:16:13.760Z,2.85
2022-08-04T03:19:04.967Z,2.63
2022-08-04T03:22:01.036Z,3.00
2022-08-04T03:25:21.092Z,3.25
2022-08-04T03:28:18.960Z,3.83
2022-08-04T03:31:02.344Z,3.40
2022-08-04T03:34:11.729Z,2.63
2022-08-04T03:37:30.609Z,2.75
2022-08-04T03:40:50.281Z,2.30
2022-08-04T03:43:57.447Z,3.03
2022-08-04T03:47:26.064Z,3.15
2022-08-04T03:50:13.102Z,2.77
2022-08-04T03:53:10.162Z,3.78
2022-08-04T03:56:10.262Z,3.10
2022-08-04T03:58:46.837Z,3.10
2022-08-04T04:02:02.193Z,3.22
2022-08-04T04:05:07.735Z,3.25
2022-08-04T04:08:19.312Z,3.10
2022-08-04T04:11:12.354Z,3.20
2022-08-04T04:14:05.339Z,3.47
2022-08-04T04:17:14.851Z,2.53
2022-08-04T04:20:17.815Z,3.35
2022-08-04T04:23:19.124Z,2.72
2022-08-04T04:26:07.724Z,2.60
2022-08-04T04:29:18.143Z,2.60
2022-08-04T04:32:04.454Z,2.38
2022-08-04T04:35:02.227Z,2.67
2022-08-04T04:37:47.721Z,3.03
2022-08-04T04:40:35.075Z,2.10
2022-08-04T04:45:55.993Z,2.03
2022-08-04T04:48:41.589Z,1.90
2022-08-04T04:51:22.917Z,2.58
2022-08-04T04:54:31.374Z,2.78
2022-08-04T04:57:11.441Z,2.08
2022-08-04T04:59:49.576Z,2.75
2022-08-04T05:03:09.320Z,2.22
2022-08-04T05:06:04.747Z,3.00
2022-08-04T05:09:17.826Z,2.47
2022-08-04T05:14:32.102Z,2.60
2022-08-04T05:15:11.690Z,2.03
2022-08-04T05:17:50.430Z,2.03
2022-08-04T05:20:25.261Z,2.45
2022-08-04T05:23:01.202Z,2.58
2022-08-04T05:25:59.521Z,2.50
2022-08-04T05:28:39.992Z,2.10
2022-08-04T05:31:14.521Z,1.95
2022-08-04T05:34:14.609Z,2.83
2022-08-04T05:36:51.559Z,2.40
2022-08-04T05:39:29.876Z,2.65
2022-08-04T05:42:04.373Z,2.58
2022-08-04T05:44:34.089Z,2.20
2022-08-04T05:47:04.232Z,2.88
2022-08-04T05:49:33.062Z,2.38
2022-08-04T05:52:02.876Z,2.55
2022-08-04T05:54:35.775Z,2.03
2022-08-04T05:57:07.355Z,2.85
2022-08-04T05:59:38.955Z,2.17
2022-08-04T06:02:08.319Z,2.58
2022-08-04T06:04:42.270Z,2.33
2022-08-04T06:07:11.319Z,2.83
2022-08-04T06:09:38.610Z,4.07
2022-08-04T06:12:12.500Z,2.45
2022-08-04T06:14:44.460Z,2.17
2022-08-04T06:18:32.933Z,2.63
2022-08-04T06:20:17.993Z,2.83
2022-08-04T06:23:02.182Z,3.67
2022-08-04T06:25:33.914Z,2.67
2022-08-04T06:28:05.856Z,3.63
2022-08-04T06:30:33.846Z,2.80
2022-08-04T06:33:05.195Z,3.00
2022-08-04T06:35:33.701Z,2.63
2022-08-04T06:38:02.982Z,2.20
2022-08-04T06:40:33.884Z,3.03
2022-08-04T06:43:07.421Z,2.35
2022-08-04T06:45:38.127Z,2.25
2022-08-04T06:48:07.090Z,2.78
2022-08-04T06:51:32.823Z,2.67
2022-08-04T06:53:27.251Z,2.92
2022-08-04T06:55:56.743Z,2.63
2022-08-04T06:58:25.211Z,3.42
2022-08-04T07:00:54.675Z,2.97
2022-08-04T07:03:22.485Z,2.67
2022-08-04T07:05:51.509Z,2.75
2022-08-04T07:08:19.693Z,2.72
2022-08-04T07:10:47.547Z,2.40
2022-08-04T07:13:15.945Z,3.50
2022-08-04T07:15:45.754Z,2.05
2022-08-04T07:18:12.844Z,2.92
2022-08-04T07:20:46.004Z,2.65
2022-08-04T07:23:17.581Z,3.38
2022-08-04T07:25:59.801Z,2.60
2022-08-04T07:28:40.923Z,2.40
2022-08-04T07:31:31.780Z,2.30
2022-08-04T07:34:11.544Z,1.80
2022-08-04T07:36:55.186Z,2.63
2022-08-04T07:41:58.975Z,2.55
2022-08-04T07:44:26.511Z,3.63
2022-08-04T07:46:54.106Z,2.90
2022-08-04T07:49:54.182Z,3.20
2022-08-04T07:52:09.747Z,2.50
2022-08-04T07:54:37.796Z,2.30
2022-08-04T07:57:04.963Z,2.50
2022-08-04T07:59:33.464Z,1.77
2022-08-04T08:02:02.126Z,3.03
2022-08-04T08:04:30.179Z,1.90
2022-08-04T08:07:00.291Z,2.28
2022-08-04T08:09:27.522Z,1.92
2022-08-04T08:12:35.713Z,1.90
2022-08-04T08:14:43.315Z,2.00
2022-08-04T08:17:10.405Z,2.20
2022-08-04T08:19:38.540Z,2.50
2022-08-04T08:22:05.700Z,1.80
2022-08-04T08:24:36.206Z,2.08
2022-08-04T08:27:08.253Z,1.60
2022-08-04T08:29:36.103Z,1.70
2022-08-04T08:32:08.898Z,1.83
2022-08-04T08:34:38.029Z,1.50
2022-08-04T08:37:35.321Z,1.60
2022-08-04T08:40:40.410Z,1.23
2022-08-04T08:44:08.861Z,1.70
2022-08-04T08:46:55.393Z,1.40
2022-08-04T08:50:03.212Z,1.75
2022-08-04T08:53:03.663Z,1.75
2022-08-04T08:56:07.995Z,1.10
2022-08-04T08:59:35.125Z,1.50
2022-08-04T09:03:06.699Z,1.75
2022-08-04T09:06:21.317Z,1.95
2022-08-04T09:09:22.263Z,1.70
2022-08-04T09:11:59.146Z,2.03
2022-08-04T09:14:40.274Z,1.60
2022-08-04T09:17:22.640Z,2.10
2022-08-04T09:20:04.089Z,2.03
2022-08-04T09:22:52.351Z,1.88
2022-08-04T09:25:31.393Z,2.10
2022-08-04T09:28:11.529Z,2.55
2022-08-04T09:30:57.017Z,2.00
2022-08-04T09:33:44.561Z,1.80
2022-08-04T09:36:37.831Z,2.28
2022-08-04T09:39:41.109Z,2.30
2022-08-04T09:42:33.767Z,1.98
2022-08-04T09:45:26.746Z,2.05
2022-08-04T09:48:07.498Z,1.73
2022-08-04T09:50:48.173Z,2.10
2022-08-04T09:53:54.387Z,1.55
2022-08-04T09:56:30.406Z,2.20
2022-08-04T09:59:25.611Z,1.58
2022-08-04T10:01:58.950Z,1.85
2022-08-04T10:04:31.442Z,2.33
2022-08-04T10:07:07.079Z,1.80
2022-08-04T10:10:13.095Z,1.65
2022-08-04T10:12:55.206Z,2.08
2022-08-04T10:15:49.755Z,1.80
2022-08-04T10:18:56.709Z,1.90
2022-08-04T10:22:27.468Z,2.00
2022-08-04T10:25:42.599Z,1.75
2022-08-04T10:28:10.031Z,1.45
2022-08-04T10:30:48.124Z,1.52
2022-08-04T10:33:26.355Z,1.70
2022-08-04T10:36:07.806Z,1.80
2022-08-04T10:39:04.084Z,1.25
2022-08-04T10:42:24.566Z,1.23
2022-08-04T10:45:20.479Z,1.67
2022-08-04T10:48:01.434Z,1.60
2022-08-04T10:50:30.043Z,2.33
2022-08-04T10:53:13.252Z,1.40
2022-08-04T10:56:06.786Z,1.17
2022-08-04T10:58:48.822Z,1.20
2022-08-04T11:01:59.846Z,1.20
2022-08-04T11:04:48.018Z,1.30
2022-08-04T11:07:30.781Z,1.25
2022-08-04T11:09:58.897Z,1.50
2022-08-04T11:12:27.438Z,0.90
2022-08-04T11:15:11.163Z,1.13
2022-08-04T11:17:45.137Z,1.42
2022-08-04T11:20:36.806Z,1.40
2022-08-04T11:23:12.489Z,1.40
2022-08-04T11:26:09.852Z,2.35
2022-08-04T11:29:05.325Z,1.42
2022-08-04T11:31:36.098Z,1.85
2022-08-04T11:34:37.815Z,2.20
2022-08-04T11:37:18.226Z,1.95
2022-08-04T11:40:17.158Z,1.85
2022-08-04T11:42:58.112Z,1.90
2022-08-04T11:45:39.503Z,2.20
2022-08-04T11:48:16.135Z,2.03
2022-08-04T11:50:53.947Z,2.25
2022-08-04T11:53:25.978Z,2.50
2022-08-04T11:56:06.979Z,1.85
2022-08-04T11:58:35.431Z,2.10
2022-08-04T12:01:36.121Z,1.90
2022-08-04T12:04:50.430Z,2.95
2022-08-04T12:07:40.436Z,1.50
2022-08-04T12:10:41.330Z,3.15
2022-08-04T12:13:33.197Z,1.50
2022-08-04T12:16:30.206Z,1.90
2022-08-04T12:19:15.696Z,2.17
2022-08-04T12:21:53.333Z,1.70
2022-08-04T12:24:37.893Z,2.90
2022-08-04T12:27:17.398Z,2.20
2022-08-04T12:30:59.875Z,2.00
2022-08-04T12:33:00.547Z,2.35
2022-08-04T12:36:11.179Z,2.70
2022-08-04T12:39:01.785Z,1.70
2022-08-04T12:42:04.736Z,2.10
2022-08-04T12:44:39.254Z,1.60
2022-08-04T12:47:26.689Z,1.60
2022-08-04T12:50:03.380Z,1.35
2022-08-04T12:55:26.062Z,1.58
2022-08-04T12:57:54.818Z,1.85
2022-08-04T13:00:45.005Z,1.50
2022-08-04T13:03:17.962Z,1.55
2022-08-04T13:05:46.033Z,2.08
2022-08-04T13:08:15.477Z,1.45
2022-08-04T13:10:48.069Z,2.08
2022-08-04T13:13:26.999Z,1.15
2022-08-04T13:16:08.399Z,1.40
2022-08-04T13:18:42.872Z,1.10
2022-08-04T13:21:50.335Z,1.52
2022-08-04T13:24:22.861Z,1.50
2022-08-04T13:27:08.973Z,1.15
2022-08-04T13:29:58.072Z,0.90
2022-08-04T13:32:28.956Z,1.63
2022-08-04T13:35:00.784Z,1.35
2022-08-04T13:37:37.017Z,1.30
2022-08-04T13:40:09.097Z,2.00
2022-08-04T13:42:37.577Z,1.25
2022-08-04T13:45:08.246Z,1.10
2022-08-04T13:47:39.440Z,1.67
2022-08-04T13:50:26.259Z,1.50
2022-08-04T13:52:56.376Z,1.27
2022-08-04T13:55:36.269Z,1.23
2022-08-04T13:58:22.103Z,1.02
2022-08-04T14:01:11.095Z,1.90
2022-08-04T14:04:03.652Z,1.17
2022-08-04T14:06:35.250Z,1.50
2022-08-04T14:09:15.638Z,2.10
2022-08-04T14:12:09.681Z,2.00
2022-08-04T14:14:48.992Z,0.82
2022-08-04T14:17:24.079Z,1.50
2022-08-04T14:20:02.374Z,0.98
2022-08-04T14:22:31.423Z,1.33
2022-08-04T14:25:07.486Z,0.85
2022-08-04T14:27:51.215Z,1.42
2022-08-04T14:30:27.905Z,1.58
2022-08-04T14:34:03.503Z,1.35
2022-08-04T14:38:48.860Z,0.90
2022-08-04T14:41:19.601Z,0.90
2022-08-04T14:44:02.372Z,0.80
2022-08-04T14:46:36.670Z,0.90
2022-08-04T14:49:11.928Z,0.88
2022-08-04T14:51:52.233Z,1.27
2022-08-04T14:54:33.799Z,1.20
2022-08-04T14:57:07.970Z,1.00
2022-08-04T14:59:59.407Z,0.77
2022-08-04T15:02:30.392Z,0.98
2022-08-04T15:04:58.061Z,0.80
2022-08-04T15:07:25.783Z,0.82
2022-08-04T15:09:54.086Z,0.75
2022-08-04T15:12:21.281Z,0.85
2022-08-04T15:14:48.464Z,1.20
2022-08-04T15:17:30.171Z,0.93
2022-08-04T15:19:58.082Z,0.93
2022-08-04T15:22:25.326Z,0.65
2022-08-04T15:24:55.527Z,1.38
2022-08-04T15:27:31.241Z,0.63
2022-08-04T15:30:07.117Z,0.85
2022-08-04T15:32:40.687Z,0.70
2022-08-04T15:35:27.250Z,0.93
2022-08-04T15:37:58.843Z,0.80
2022-08-04T15:40:48.750Z,0.70
2022-08-04T15:43:27.662Z,0.80
2022-08-04T15:46:02.269Z,0.80
2022-08-04T15:48:49.788Z,0.98
2022-08-04T15:51:30.418Z,1.10
2022-08-04T15:54:08.442Z,1.15
2022-08-04T15:56:48.386Z,0.65
2022-08-04T16:02:38.777Z,1.05
2022-08-04T16:05:17.959Z,0.77
2022-08-04T16:08:09.239Z,1.00
2022-08-04T16:10:38.977Z,1.40
2022-08-04T16:13:15.444Z,1.02
2022-08-04T16:15:52.250Z,0.90
2022-08-04T16:18:31.473Z,1.00
2022-08-04T16:21:03.630Z,0.65
2022-08-04T16:24:00.807Z,0.65
2022-08-04T16:26:38.244Z,0.90
2022-08-04T16:29:39.019Z,1.00
2022-08-04T16:32:06.391Z,0.80
2022-08-04T16:34:55.273Z,0.88
2022-08-04T16:37:38.482Z,0.75
2022-08-04T16:40:37.125Z,0.77
2022-08-04T16:43:17.556Z,0.70
2022-08-04T16:45:55.999Z,0.75
2022-08-04T16:48:33.855Z,0.75
2022-08-04T16:51:15.301Z,0.73
2022-08-04T16:53:53.650Z,0.70
2022-08-04T16:56:35.255Z,0.75
2022-08-04T16:59:10.958Z,0.88
2022-08-04T17:04:16.226Z,1.55
2022-08-04T17:06:46.593Z,1.10
2022-08-04T17:09:26.790Z,1.00
2022-08-04T17:11:57.076Z,0.43
2022-08-04T17:14:27.758Z,0.60
2022-08-04T17:17:01.541Z,1.15
2022-08-04T17:19:28.826Z,1.00
2022-08-04T17:22:05.988Z,0.90
2022-08-04T17:24:38.089Z,0.68
2022-08-04T17:28:19.030Z,0.93
2022-08-04T17:29:54.573Z,0.73
2022-08-04T17:32:22.885Z,0.95
2022-08-04T17:34:59.909Z,0.80
2022-08-04T17:37:52.648Z,1.23
2022-08-04T17:40:22.705Z,0.70
2022-08-04T17:44:03.330Z,0.60
2022-08-04T17:46:49.077Z,0.70
2022-08-04T17:49:19.145Z,0.82
2022-08-04T17:52:04.271Z,0.77
2022-08-04T17:54:38.970Z,0.63
2022-08-04T17:57:21.889Z,0.90
2022-08-04T17:59:58.888Z,1.02
2022-08-04T18:02:35.027Z,0.90
2022-08-04T18:05:07.948Z,1.10
2022-08-04T18:08:34.597Z,1.17
2022-08-04T18:10:51.809Z,1.00
2022-08-04T18:13:27.486Z,1.08
2022-08-04T18:16:23.706Z,0.70
2022-08-04T18:19:15.548Z,0.75
2022-08-04T18:22:00.298Z,1.13
2022-08-04T18:24:36.101Z,0.80
2022-08-04T18:27:21.421Z,1.20
2022-08-04T18:29:50.188Z,1.13
2022-08-04T18:32:36.346Z,1.17
2022-08-04T18:35:09.599Z,1.30
2022-08-04T18:38:05.007Z,1.10
2022-08-04T18:40:41.919Z,1.10
2022-08-04T18:43:17.643Z,1.50
2022-08-04T18:45:59.331Z,0.80
2022-08-04T18:51:23.579Z,1.10
2022-08-04T18:53:58.874Z,1.10
2022-08-04T18:56:32.444Z,1.20
2022-08-04T19:02:13.609Z,1.15
2022-08-04T19:04:44.613Z,1.08
2022-08-04T19:07:29.653Z,1.25
2022-08-04T19:09:59.744Z,0.93
2022-08-04T19:12:28.373Z,1.00
2022-08-04T19:15:08.427Z,1.13
2022-08-04T19:17:53.953Z,0.93
2022-08-04T19:20:26.682Z,0.98
2022-08-04T19:24:11.101Z,0.98
2022-08-04T19:26:01.136Z,1.50
2022-08-04T19:28:35.610Z,1.33
2022-08-04T19:31:08.944Z,1.10
2022-08-04T19:36:29.099Z,1.52
2022-08-04T19:39:00.336Z,1.67
2022-08-04T19:41:31.188Z,1.92
2022-08-04T19:43:58.208Z,1.20
2022-08-04T19:46:27.861Z,1.92
2022-08-04T19:48:59.489Z,1.23
2022-08-04T19:51:30.220Z,1.17
2022-08-04T19:54:04.010Z,1.00
2022-08-04T19:56:41.521Z,0.95
2022-08-04T19:59:11.635Z,1.20
2022-08-04T20:01:44.611Z,1.40
2022-08-04T20:04:14.616Z,1.25
2022-08-04T20:06:42.882Z,1.63
2022-08-04T20:09:25.544Z,1.23
2022-08-04T20:11:58.145Z,1.42
2022-08-04T20:14:32.639Z,1.20
2022-08-04T20:19:36.953Z,1.00
2022-08-04T20:22:03.892Z,1.30
2022-08-04T20:24:39.482Z,1.15
2022-08-04T20:27:15.645Z,1.15
2022-08-04T20:29:48.763Z,0.90
2022-08-04T20:32:25.787Z,1.65
2022-08-04T20:34:58.701Z,1.58
2022-08-04T20:37:55.388Z,1.42
2022-08-04T20:40:14.919Z,1.42
2022-08-04T20:42:45.058Z,1.05
2022-08-04T20:45:16.673Z,1.38
2022-08-04T20:47:53.056Z,1.33
2022-08-04T20:50:29.722Z,1.08
2022-08-04T20:52:58.442Z,1.23
2022-08-04T20:55:29.611Z,1.63
2022-08-04T20:58:03.282Z,1.50
2022-08-04T21:00:33.579Z,1.27
2022-08-04T21:03:01.562Z,2.08
2022-08-04T21:05:29.052Z,1.00
2022-08-04T21:07:59.000Z,1.00
2022-08-04T21:10:26.391Z,1.20
2022-08-04T21:12:54.346Z,1.40
2022-08-04T21:15:25.674Z,1.10
2022-08-04T21:17:58.244Z,1.35
2022-08-04T21:20:32.329Z,1.38
2022-08-04T21:23:02.199Z,1.38
2022-08-04T21:25:32.768Z,1.00
2022-08-04T21:28:10.292Z,1.48
2022-08-04T21:30:54.256Z,1.33
2022-08-04T21:33:48.187Z,0.95
2022-08-04T21:36:12.460Z,1.15
2022-08-04T21:38:51.654Z,1.73
2022-08-04T21:41:25.237Z,1.88
2022-08-04T21:43:54.985Z,0.80
2022-08-04T21:46:22.418Z,0.77
2022-08-04T21:48:49.559Z,1.30
2022-08-04T21:51:57.366Z,1.00
2022-08-04T21:54:09.094Z,0.95
2022-08-04T21:56:37.966Z,1.00
2022-08-04T22:01:54.805Z,1.23
2022-08-04T22:04:22.061Z,1.33
2022-08-04T22:06:52.433Z,1.40
2022-08-04T22:09:21.761Z,2.05
2022-08-04T22:11:50.631Z,1.40
2022-08-04T22:14:28.996Z,1.70
2022-08-04T22:17:01.990Z,1.55
2022-08-04T22:19:49.857Z,1.90
2022-08-04T22:22:25.496Z,1.80
2022-08-04T22:24:58.881Z,2.85
2022-08-04T22:27:47.618Z,1.80
2022-08-04T22:30:17.385Z,1.65
2022-08-04T22:32:48.552Z,1.52
2022-08-04T22:35:36.288Z,1.90
2022-08-04T22:38:21.296Z,2.70
2022-08-04T22:41:07.066Z,2.20
2022-08-04T22:43:36.307Z,2.80
2022-08-04T22:46:12.268Z,2.13
2022-08-04T22:51:10.744Z,2.03
2022-08-04T22:53:40.063Z,2.10
2022-08-04T22:56:10.808Z,2.40
2022-08-04T22:58:45.311Z,2.80
2022-08-04T23:01:16.329Z,2.47
2022-08-04T23:03:55.215Z,3.00
2022-08-04T23:06:28.290Z,2.17
2022-08-04T23:08:56.332Z,2.03
2022-08-04T23:11:24.260Z,2.55
2022-08-04T23:14:02.531Z,2.22
2022-08-04T23:16:29.854Z,2.17
2022-08-04T23:18:56.830Z,2.65
2022-08-04T23:21:24.249Z,2.25
2022-08-04T23:24:02.452Z,3.10
2022-08-04T23:26:29.818Z,2.70
2022-08-04T23:28:56.999Z,3.65
2022-08-04T23:31:41.623Z,3.00
2022-08-04T23:34:18.717Z,2.70
2022-08-04T23:36:46.056Z,3.53
2022-08-04T23:39:14.585Z,2.70
2022-08-04T23:41:55.182Z,3.22
2022-08-04T23:44:27.114Z,2.80
2022-08-04T23:47:02.594Z,3.17
2022-08-04T23:49:43.887Z,3.85
2022-08-04T23:52:15.769Z,2.78
2022-08-04T23:54:54.455Z,2.45
2022-08-04T23:57:22.339Z,2.85
2022-08-04T23:59:54.266Z,2.63
